createdAt,value
2023-03-04T00:01:05.402Z,96761.06
2023-03-04T00:03:54.897Z,96758.50
2023-03-04T00:06:43.543Z,96763.75
2023-03-04T00:09:33.764Z,96755.38
2023-03-04T00:12:22.457Z,96755.16
2023-03-04T00:15:12.536Z,96729.91
2023-03-04T00:18:01.124Z,96757.91
2023-03-04T00:20:50.885Z,96757.34
2023-03-04T00:23:41.260Z,96763.28
2023-03-04T00:26:32.492Z,96754.19
2023-03-04T00:29:22.094Z,96752.38
2023-03-04T00:32:11.821Z,96766.34
2023-03-04T00:35:01.434Z,96760.53
2023-03-04T00:37:50.810Z,96748.53
2023-03-04T00:40:39.377Z,96758.38
2023-03-04T00:43:29.827Z,96757.00
2023-03-04T00:46:19.316Z,96755.94
2023-03-04T00:49:07.942Z,96759.16
2023-03-04T00:51:57.620Z,96755.47
2023-03-04T00:54:46.167Z,96750.50
2023-03-04T00:57:37.300Z,96747.63
2023-03-04T01:00:27.486Z,96749.00
2023-03-04T01:03:17.260Z,96751.13
2023-03-04T01:06:06.297Z,96746.03
2023-03-04T01:08:55.823Z,96750.38
2023-03-04T01:11:44.881Z,96748.72
2023-03-04T01:14:34.635Z,96742.59
2023-03-04T01:17:24.646Z,96724.84
2023-03-04T01:20:14.882Z,96731.75
2023-03-04T01:23:03.473Z,96730.47
2023-03-04T01:29:07.106Z,96728.03
2023-03-04T01:31:56.366Z,96728.25
2023-03-04T01:34:47.037Z,96702.06
2023-03-04T01:37:37.356Z,96725.97
2023-03-04T01:40:26.095Z,96724.09
2023-03-04T01:43:22.760Z,96725.31
2023-03-04T01:46:15.147Z,96722.84
2023-03-04T01:49:05.335Z,96720.31
2023-03-04T01:51:56.387Z,96706.38
2023-03-04T01:54:45.400Z,96703.44
2023-03-04T01:57:37.388Z,96717.50
2023-03-04T02:00:30.491Z,96706.22
2023-03-04T02:03:21.134Z,96711.50
2023-03-04T02:06:09.891Z,96704.97
2023-03-04T02:09:01.549Z,96689.66
2023-03-04T02:11:52.488Z,96705.69
2023-03-04T02:14:41.970Z,96704.84
2023-03-04T02:17:33.380Z,96709.19
2023-03-04T02:20:31.642Z,96678.75
2023-03-04T02:23:27.038Z,96701.34
2023-03-04T02:26:21.049Z,96705.69
2023-03-04T02:29:14.967Z,96691.00
2023-03-04T02:32:04.733Z,96696.09
2023-03-04T02:34:55.074Z,96700.44
2023-03-04T02:37:44.527Z,96693.59
2023-03-04T02:40:35.766Z,96694.63
2023-03-04T02:43:26.522Z,96697.47
2023-03-04T02:46:15.537Z,96664.75
2023-03-04T02:49:04.772Z,96685.31
2023-03-04T02:51:54.834Z,96698.50
2023-03-04T02:54:43.440Z,96691.69
2023-03-04T02:57:34.125Z,96692.88
2023-03-04T03:00:24.742Z,96697.13
2023-03-04T03:03:14.261Z,96700.19
2023-03-04T03:06:04.449Z,96704.31
2023-03-04T03:08:53.150Z,96699.34
2023-03-04T03:11:43.373Z,96696.28
2023-03-04T03:14:32.137Z,96695.84
2023-03-04T03:17:23.752Z,96701.84
2023-03-04T03:20:13.987Z,96703.88
2023-03-04T03:23:03.508Z,96704.91
2023-03-04T03:25:52.223Z,96703.41
2023-03-04T03:28:41.898Z,96690.13
2023-03-04T03:31:30.616Z,96700.47
2023-03-04T03:34:22.401Z,96701.94
2023-03-04T03:37:11.813Z,96696.97
2023-03-04T03:40:01.341Z,96702.34
2023-03-04T03:42:50.294Z,96686.94
2023-03-04T03:45:38.944Z,96698.84
2023-03-04T03:48:28.419Z,96696.63
2023-03-04T03:51:19.223Z,96703.25
2023-03-04T03:54:07.823Z,96692.47
2023-03-04T03:56:57.984Z,96693.66
2023-03-04T03:59:47.059Z,96661.09
2023-03-04T04:02:36.150Z,96689.59
2023-03-04T04:05:24.880Z,96666.56
2023-03-04T04:08:17.523Z,96696.06
2023-03-04T04:11:06.377Z,96691.44
2023-03-04T04:13:56.147Z,96688.78
2023-03-04T04:16:44.803Z,96687.75
2023-03-04T04:19:34.378Z,96692.47
2023-03-04T04:22:23.092Z,96692.47
2023-03-04T04:25:13.827Z,96684.41
2023-03-04T04:32:13.603Z,96682.63
2023-03-04T04:35:02.171Z,96681.34
2023-03-04T04:37:51.872Z,96691.72
2023-03-04T04:40:42.956Z,96678.25
2023-03-04T04:43:31.946Z,96681.53
2023-03-04T04:46:21.607Z,96671.59
2023-03-04T04:49:10.837Z,96674.72
2023-03-04T04:51:59.955Z,96672.41
2023-03-04T04:54:48.510Z,96676.28
2023-03-04T04:57:38.969Z,96650.38
2023-03-04T05:00:28.256Z,96679.94
2023-03-04T05:03:18.502Z,96680.81
2023-03-04T05:06:10.717Z,96682.88
2023-03-04T05:08:59.793Z,96676.41
2023-03-04T05:11:48.342Z,96680.28
2023-03-04T05:14:40.096Z,96688.56
2023-03-04T05:17:28.924Z,96689.72
2023-03-04T05:20:18.300Z,96674.41
2023-03-04T05:23:06.907Z,96691.38
2023-03-04T05:25:56.594Z,96686.41
2023-03-04T05:28:46.734Z,96697.22
2023-03-04T05:31:36.686Z,96686.66
2023-03-04T05:34:26.148Z,96695.50
2023-03-04T05:37:14.663Z,96692.63
2023-03-04T05:40:03.311Z,96703.13
2023-03-04T05:42:51.840Z,96692.19
2023-03-04T05:45:41.602Z,96688.19
2023-03-04T05:48:31.640Z,96690.53
2023-03-04T05:51:21.205Z,96691.88
2023-03-04T05:54:10.241Z,96693.91
2023-03-04T05:56:59.256Z,96661.69
2023-03-04T05:59:47.880Z,96692.91
2023-03-04T06:02:38.360Z,96691.38
2023-03-04T06:05:28.266Z,96695.06
2023-03-04T06:08:17.342Z,96693.31
2023-03-04T06:11:07.213Z,96705.94
2023-03-04T06:13:56.325Z,96703.75
2023-03-04T06:16:44.917Z,96708.72
2023-03-04T06:19:33.772Z,96714.72
2023-03-04T06:22:24.084Z,96720.06
2023-03-04T06:25:12.984Z,96716.63
2023-03-04T06:28:01.901Z,96725.34
2023-03-04T06:30:53.320Z,96728.22
2023-03-04T06:33:41.870Z,96718.34
2023-03-04T06:36:31.112Z,96735.38
2023-03-04T06:39:21.111Z,96730.34
2023-03-04T06:42:09.703Z,96733.47
2023-03-04T06:44:59.064Z,96739.00
2023-03-04T06:47:48.062Z,96740.84
2023-03-04T06:50:36.682Z,96739.19
2023-03-04T06:53:26.009Z,96739.38
2023-03-04T06:56:16.954Z,96736.53
2023-03-04T06:59:06.904Z,96745.13
2023-03-04T07:01:55.995Z,96742.63
2023-03-04T07:04:44.598Z,96751.97
2023-03-04T07:07:33.563Z,96754.44
2023-03-04T07:10:22.107Z,96758.28
2023-03-04T07:13:13.526Z,96766.78
2023-03-04T07:16:02.497Z,96765.59
2023-03-04T07:18:51.980Z,96756.41
2023-03-04T07:21:40.590Z,96769.53
2023-03-04T07:24:29.777Z,96777.16
2023-03-04T07:27:18.827Z,96767.59
2023-03-04T07:30:11.112Z,96775.75
2023-03-04T07:33:00.481Z,96773.38
2023-03-04T07:35:49.063Z,96776.41
2023-03-04T07:38:37.672Z,96751.91
2023-03-04T07:41:28.655Z,96769.09
2023-03-04T07:44:17.203Z,96776.66
2023-03-04T07:47:07.906Z,96734.69
2023-03-04T07:49:57.117Z,96780.56
2023-03-04T07:52:47.779Z,96782.84
2023-03-04T07:55:36.278Z,96779.00
2023-03-04T07:58:25.704Z,96782.03
2023-03-04T08:01:17.552Z,96790.13
2023-03-04T08:04:08.944Z,96788.03
2023-03-04T08:06:58.028Z,96794.13
2023-03-04T08:09:47.008Z,96801.31
2023-03-04T08:12:35.791Z,96789.84
2023-03-04T08:15:26.302Z,96797.19
2023-03-04T08:18:14.851Z,96794.59
2023-03-04T08:21:09.656Z,96787.56
2023-03-04T08:23:59.919Z,96795.19
2023-03-04T08:26:50.943Z,96805.53
2023-03-04T08:29:41.388Z,96809.38
2023-03-04T08:32:30.057Z,96810.28
2023-03-04T08:35:19.815Z,96809.19
2023-03-04T08:38:09.726Z,96805.53
2023-03-04T08:41:00.439Z,96802.28
2023-03-04T08:43:48.983Z,96801.94
2023-03-04T08:46:39.422Z,96809.88
2023-03-04T08:49:27.963Z,96797.94
2023-03-04T08:52:17.397Z,96803.06
2023-03-04T08:55:08.462Z,96802.13
2023-03-04T08:57:57.395Z,96784.63
2023-03-04T09:00:50.110Z,96794.69
2023-03-04T09:03:39.641Z,96787.50
2023-03-04T09:06:28.308Z,96803.09
2023-03-04T09:09:16.886Z,96803.75
2023-03-04T09:12:07.131Z,96804.06
2023-03-04T09:15:10.335Z,96800.38
2023-03-04T09:18:00.235Z,96802.88
2023-03-04T09:20:50.521Z,96789.81
2023-03-04T09:23:40.056Z,96800.63
2023-03-04T09:26:30.822Z,96802.69
2023-03-04T09:29:20.905Z,96803.72
2023-03-04T09:32:10.441Z,96814.50
2023-03-04T09:34:59.267Z,96814.44
2023-03-04T09:37:48.912Z,96803.72
2023-03-04T09:40:42.486Z,96810.16
2023-03-04T09:43:32.189Z,96800.22
2023-03-04T09:46:34.120Z,96816.97
2023-03-04T09:49:24.121Z,96802.09
2023-03-04T09:52:25.379Z,96815.53
2023-03-04T09:55:22.477Z,96812.41
2023-03-04T09:58:23.535Z,96819.00
2023-03-04T10:01:21.049Z,96821.50
2023-03-04T10:04:17.606Z,96815.06
2023-03-04T10:07:08.728Z,96824.91
2023-03-04T10:10:03.484Z,96822.84
2023-03-04T10:12:56.513Z,96822.00
2023-03-04T10:15:51.118Z,96818.13
2023-03-04T10:18:45.549Z,96821.16
2023-03-04T10:21:40.238Z,96815.06
2023-03-04T10:24:31.511Z,96819.94
2023-03-04T10:27:21.406Z,96801.19
2023-03-04T10:30:21.017Z,96806.41
2023-03-04T10:33:14.280Z,96808.28
2023-03-04T10:36:06.508Z,96806.63
2023-03-04T10:38:59.264Z,96810.78
2023-03-04T10:41:58.896Z,96810.09
2023-03-04T10:44:54.055Z,96809.50
2023-03-04T10:47:54.182Z,96811.38
2023-03-04T10:50:42.745Z,96810.38
2023-03-04T10:53:38.709Z,96807.25
2023-03-04T10:56:35.514Z,96813.25
2023-03-04T10:59:46.987Z,96804.97
2023-03-04T11:02:38.171Z,96807.44
2023-03-04T11:05:27.578Z,96796.47
2023-03-04T11:08:20.197Z,96815.53
2023-03-04T11:11:24.470Z,96794.59
2023-03-04T11:14:22.661Z,96801.81
2023-03-04T11:17:23.630Z,96801.78
2023-03-04T11:20:19.904Z,96787.69
2023-03-04T11:23:15.849Z,96806.06
2023-03-04T11:26:11.695Z,96815.88
2023-03-04T11:29:07.024Z,96815.84
2023-03-04T11:32:04.172Z,96812.31
2023-03-04T11:35:01.031Z,96813.06
2023-03-04T11:37:55.974Z,96809.47
2023-03-04T11:40:48.305Z,96799.16
2023-03-04T11:43:38.951Z,96796.63
2023-03-04T11:47:06.975Z,96797.91
2023-03-04T11:50:17.366Z,96799.84
2023-03-04T11:53:22.082Z,96801.94
2023-03-04T11:56:31.647Z,96796.16
2023-03-04T11:59:53.791Z,96793.88
2023-03-04T12:02:51.471Z,96789.69
2023-03-04T12:05:52.540Z,96777.94
2023-03-04T12:09:01.601Z,96775.50
2023-03-04T12:12:02.968Z,96767.47
2023-03-04T12:15:02.696Z,96760.75
2023-03-04T12:18:13.742Z,96763.22
2023-03-04T12:21:18.296Z,96762.09
2023-03-04T12:24:32.597Z,96759.34
2023-03-04T12:27:29.147Z,96749.16
2023-03-04T12:30:29.317Z,96737.47
2023-03-04T12:33:27.269Z,96746.78
2023-03-04T12:36:27.650Z,96745.75
2023-03-04T12:39:31.202Z,96741.56
2023-03-04T12:42:30.968Z,96742.41
2023-03-04T12:45:27.560Z,96736.81
2023-03-04T12:48:28.852Z,96732.03
2023-03-04T12:51:30.845Z,96724.59
2023-03-04T12:54:28.078Z,96727.31
2023-03-04T12:57:20.963Z,96733.66
2023-03-04T13:00:24.292Z,96717.06
2023-03-04T13:03:18.415Z,96725.72
2023-03-04T13:06:26.772Z,96713.38
2023-03-04T13:09:24.993Z,96716.41
2023-03-04T13:12:21.609Z,96703.31
2023-03-04T13:15:32.343Z,96713.31
2023-03-04T13:18:37.248Z,96711.19
2023-03-04T13:21:29.971Z,96713.47
2023-03-04T13:24:47.707Z,96719.72
2023-03-04T13:27:48.590Z,96706.47
2023-03-04T13:31:06.741Z,96712.03
2023-03-04T13:34:00.893Z,96708.25
2023-03-04T13:37:04.425Z,96706.59
2023-03-04T13:40:27.513Z,96696.50
2023-03-04T13:43:39.599Z,96700.88
2023-03-04T13:46:43.862Z,96699.84
2023-03-04T13:49:32.559Z,96705.81
2023-03-04T13:52:51.403Z,96711.22
2023-03-04T13:55:43.431Z,96706.50
2023-03-04T13:58:32.109Z,96701.53
2023-03-04T14:01:26.524Z,96711.22
2023-03-04T14:04:19.989Z,96699.81
2023-03-04T14:07:22.173Z,96705.06
2023-03-04T14:10:24.039Z,96695.97
2023-03-04T14:13:13.447Z,96688.28
2023-03-04T14:16:02.058Z,96697.88
2023-03-04T14:19:07.019Z,96690.19
2023-03-04T14:21:56.140Z,96681.69
2023-03-04T14:24:57.465Z,96686.00
2023-03-04T14:27:47.972Z,96688.06
2023-03-04T14:30:43.759Z,96665.34
2023-03-04T14:33:33.702Z,96692.69
2023-03-04T14:36:25.894Z,96677.16
2023-03-04T14:39:19.557Z,96673.44
2023-03-04T14:42:13.496Z,96666.44
2023-03-04T14:45:04.164Z,96668.34
2023-03-04T14:47:55.681Z,96670.13
2023-03-04T14:50:50.178Z,96670.56
2023-03-04T14:53:55.278Z,96678.41
2023-03-04T14:56:46.305Z,96663.69
2023-03-04T14:59:36.485Z,96670.13
2023-03-04T15:02:32.480Z,96668.59
2023-03-04T15:05:26.251Z,96670.91
2023-03-04T15:08:24.127Z,96662.66
2023-03-04T15:11:24.322Z,96664.13
2023-03-04T15:14:45.927Z,96654.38
2023-03-04T15:17:39.112Z,96661.56
2023-03-04T15:20:29.997Z,96656.88
2023-03-04T15:23:19.768Z,96655.78
2023-03-04T15:26:11.700Z,96643.28
2023-03-04T15:29:00.963Z,96628.13
2023-03-04T15:31:49.738Z,96658.91
2023-03-04T15:34:40.395Z,96662.41
2023-03-04T15:37:30.965Z,96665.91
2023-03-04T15:40:26.426Z,96661.41
2023-03-04T15:43:17.204Z,96661.66
2023-03-04T15:46:06.307Z,96657.53
2023-03-04T15:48:56.280Z,96659.38
2023-03-04T15:51:46.273Z,96661.34
2023-03-04T15:54:35.623Z,96660.50
2023-03-04T15:57:26.738Z,96656.72
2023-03-04T16:00:18.075Z,96653.44
2023-03-04T16:03:06.596Z,96659.41
2023-03-04T16:05:56.724Z,96647.78
2023-03-04T16:08:47.411Z,96655.00
2023-03-04T16:11:42.534Z,96644.66
2023-03-04T16:14:31.017Z,96653.59
2023-03-04T16:17:21.244Z,96654.91
2023-03-04T16:20:12.952Z,96652.16
2023-03-04T16:23:04.180Z,96653.81
2023-03-04T16:25:57.365Z,96659.97
2023-03-04T16:28:46.435Z,96668.56
2023-03-04T16:31:34.987Z,96663.84
2023-03-04T16:34:25.236Z,96670.19
2023-03-04T16:37:19.664Z,96662.88
2023-03-04T16:40:12.632Z,96674.03
2023-03-04T16:43:02.548Z,96672.00
2023-03-04T16:45:53.011Z,96668.31
2023-03-04T16:48:41.909Z,96675.31
2023-03-04T16:51:35.664Z,96673.47
2023-03-04T16:54:29.926Z,96676.63
2023-03-04T16:57:19.115Z,96671.69
2023-03-04T17:00:11.091Z,96676.50
2023-03-04T17:03:02.264Z,96679.53
2023-03-04T17:05:51.369Z,96675.00
2023-03-04T17:08:40.014Z,96685.16
2023-03-04T17:11:29.215Z,96678.72
2023-03-04T17:14:17.722Z,96684.66
2023-03-04T17:17:09.011Z,96688.06
2023-03-04T17:19:57.899Z,96678.00
2023-03-04T17:22:47.573Z,96689.16
2023-03-04T17:25:36.116Z,96689.53
2023-03-04T17:28:24.857Z,96694.44
2023-03-04T17:31:15.519Z,96693.50
2023-03-04T17:34:05.394Z,96691.09
2023-03-04T17:36:55.553Z,96705.78
2023-03-04T17:39:44.512Z,96701.06
2023-03-04T17:42:33.107Z,96705.41
2023-03-04T17:45:21.685Z,96716.50
2023-03-04T17:48:14.977Z,96707.38
2023-03-04T17:51:06.146Z,96710.75
2023-03-04T17:53:55.814Z,96722.28
2023-03-04T17:56:44.898Z,96722.88
2023-03-04T17:59:33.727Z,96718.34
2023-03-04T18:02:22.587Z,96719.09
2023-03-04T18:05:11.883Z,96719.63
2023-03-04T18:08:01.746Z,96718.53
2023-03-04T18:10:50.845Z,96713.28
2023-03-04T18:13:40.018Z,96711.53
2023-03-04T18:16:31.732Z,96709.53
2023-03-04T18:19:21.544Z,96706.47
2023-03-04T18:22:13.734Z,96716.34
2023-03-04T18:25:03.701Z,96707.50
2023-03-04T18:27:53.351Z,96708.31
2023-03-04T18:30:41.926Z,96702.50
2023-03-04T18:33:32.978Z,96711.28
2023-03-04T18:36:21.805Z,96685.53
2023-03-04T18:39:11.432Z,96714.13
2023-03-04T18:42:02.599Z,96689.22
2023-03-04T18:44:51.639Z,96716.63
2023-03-04T18:47:41.529Z,96717.25
2023-03-04T18:50:30.453Z,96711.28
2023-03-04T18:53:19.244Z,96716.31
2023-03-04T18:56:12.408Z,96696.50
2023-03-04T18:59:03.301Z,96715.03
2023-03-04T19:01:54.106Z,96704.72
2023-03-04T19:04:42.632Z,96710.50
2023-03-04T19:07:32.149Z,96710.97
2023-03-04T19:10:21.529Z,96700.00
2023-03-04T19:13:10.124Z,96701.75
2023-03-04T19:16:00.299Z,96693.47
2023-03-04T19:18:49.228Z,96694.56
2023-03-04T19:21:39.217Z,96682.41
2023-03-04T19:24:28.128Z,96690.25
2023-03-04T19:27:16.688Z,96694.41
2023-03-04T19:30:08.525Z,96690.44
2023-03-04T19:32:59.688Z,96676.78
2023-03-04T19:35:48.850Z,96677.34
2023-03-04T19:38:37.913Z,96690.13
2023-03-04T19:41:26.978Z,96690.97
2023-03-04T19:44:15.491Z,96691.91
2023-03-04T19:47:04.677Z,96694.94
2023-03-04T19:49:55.406Z,96699.38
2023-03-04T19:52:44.718Z,96683.63
2023-03-04T19:55:38.452Z,96695.50
2023-03-04T19:58:26.970Z,96685.53
2023-03-04T20:01:28.199Z,96694.56
2023-03-04T20:04:19.712Z,96693.41
2023-03-04T20:07:10.492Z,96688.03
2023-03-04T20:09:59.328Z,96689.88
2023-03-04T20:12:47.835Z,96674.56
2023-03-04T20:15:37.827Z,96679.84
2023-03-04T20:18:26.347Z,96682.69
2023-03-04T20:21:15.906Z,96677.59
2023-03-04T20:24:07.084Z,96667.28
2023-03-04T20:26:57.045Z,96673.38
2023-03-04T20:29:46.224Z,96683.88
2023-03-04T20:32:35.537Z,96663.97
2023-03-04T20:35:24.683Z,96679.25
2023-03-04T20:38:15.135Z,96672.91
2023-03-04T20:41:06.327Z,96670.88
2023-03-04T20:43:55.637Z,96686.00
2023-03-04T20:46:46.228Z,96678.81
2023-03-04T20:49:35.704Z,96671.31
2023-03-04T20:52:24.243Z,96686.44
2023-03-04T20:55:13.618Z,96676.47
2023-03-04T20:58:04.487Z,96678.34
2023-03-04T21:00:54.303Z,96688.69
2023-03-04T21:03:43.047Z,96682.84
2023-03-04T21:06:32.818Z,96672.06
2023-03-04T21:09:23.525Z,96684.16
2023-03-04T21:12:13.247Z,96684.97
2023-03-04T21:15:03.335Z,96630.56
2023-03-04T21:17:52.425Z,96676.13
2023-03-04T21:20:41.876Z,96673.09
2023-03-04T21:23:30.654Z,96666.66
2023-03-04T21:26:20.178Z,96677.59
2023-03-04T21:29:09.613Z,96671.16
2023-03-04T21:32:20.725Z,96665.34
2023-03-04T21:35:15.221Z,96653.91
2023-03-04T21:38:04.413Z,96666.09
2023-03-04T21:40:53.738Z,96665.53
2023-03-04T21:43:42.286Z,96668.03
2023-03-04T21:46:31.544Z,96677.50
2023-03-04T21:49:21.583Z,96672.00
2023-03-04T21:52:11.092Z,96667.28
2023-03-04T21:55:00.583Z,96672.81
2023-03-04T21:57:49.208Z,96670.50
2023-03-04T22:00:39.237Z,96668.84
2023-03-04T22:03:28.701Z,96656.22
2023-03-04T22:06:21.908Z,96660.38
2023-03-04T22:09:12.176Z,96656.41
2023-03-04T22:12:00.698Z,96658.69
2023-03-04T22:14:50.112Z,96654.84
2023-03-04T22:17:38.787Z,96656.50
2023-03-04T22:20:28.433Z,96650.78
2023-03-04T22:23:20.881Z,96631.69
2023-03-04T22:26:12.528Z,96645.72
2023-03-04T22:29:02.955Z,96634.09
2023-03-04T22:31:51.585Z,96645.31
2023-03-04T22:34:41.149Z,96644.25
2023-03-04T22:37:30.088Z,96636.22
2023-03-04T22:40:20.691Z,96640.91
2023-03-04T22:43:09.884Z,96639.97
2023-03-04T22:46:00.413Z,96630.50
2023-03-04T22:48:49.889Z,96639.97
2023-03-04T22:51:40.996Z,96642.94
2023-03-04T22:54:30.136Z,96626.91
2023-03-04T22:57:20.013Z,96622.47
2023-03-04T23:00:19.138Z,96627.28
2023-03-04T23:03:08.528Z,96613.72
2023-03-04T23:06:07.020Z,96632.97
2023-03-04T23:08:55.607Z,96625.44
2023-03-04T23:11:44.443Z,96619.59
2023-03-04T23:14:34.344Z,96622.75
2023-03-04T23:17:24.082Z,96619.91
2023-03-04T23:20:14.521Z,96617.50
2023-03-04T23:23:03.930Z,96622.28
2023-03-04T23:25:53.566Z,96619.91
2023-03-04T23:28:42.240Z,96622.56
2023-03-04T23:31:34.578Z,96619.50
2023-03-04T23:34:23.651Z,96611.59
2023-03-04T23:37:12.156Z,96617.75
2023-03-04T23:40:01.771Z,96617.03
2023-03-04T23:42:50.470Z,96614.84
2023-03-04T23:45:40.737Z,96613.09
2023-03-04T23:48:30.646Z,96606.25
2023-03-04T23:51:21.713Z,96606.81
2023-03-04T23:54:10.256Z,96606.09
2023-03-04T23:57:00.994Z,96591.59
2023-03-04T23:59:49.521Z,96609.84
